sensor_id;sensor_type;location;lat;lon;timestamp;P1;durP1;ratioP1;P2;durP2;ratioP2
64282;SDS011;50497;50.720;-2.084;2023-03-31T00:00:17;40.78;;;6.15;;
64282;SDS011;50497;50.720;-2.084;2023-03-31T00:02:52;33.45;;;6.60;;
64282;SDS011;50497;50.720;-2.084;2023-03-31T00:05:24;51.83;;;6.45;;
64282;SDS011;50497;50.720;-2.084;2023-03-31T00:07:55;54.92;;;7.20;;
64282;SDS011;50497;50.720;-2.084;2023-03-31T00:10:29;42.28;;;6.70;;
64282;SDS011;50497;50.720;-2.084;2023-03-31T00:12:58;43.00;;;6.15;;
64282;SDS011;50497;50.720;-2.084;2023-03-31T00:15:30;41.40;;;6.20;;
64282;SDS011;50497;50.720;-2.084;2023-03-31T00:17:59;46.78;;;7.30;;
64282;SDS011;50497;50.720;-2.084;2023-03-31T00:20:27;38.10;;;6.32;;
64282;SDS011;50497;50.720;-2.084;2023-03-31T00:22:57;40.85;;;5.80;;
64282;SDS011;50497;50.720;-2.084;2023-03-31T00:25:26;35.90;;;6.65;;
64282;SDS011;50497;50.720;-2.084;2023-03-31T00:27:57;38.00;;;6.63;;
64282;SDS011;50497;50.720;-2.084;2023-03-31T00:30:23;29.45;;;5.05;;
64282;SDS011;50497;50.720;-2.084;2023-03-31T00:32:48;31.58;;;4.72;;
64282;SDS011;50497;50.720;-2.084;2023-03-31T00:35:24;39.92;;;6.18;;
64282;SDS011;50497;50.720;-2.084;2023-03-31T00:37:53;37.08;;;6.38;;
64282;SDS011;50497;50.720;-2.084;2023-03-31T00:40:21;39.78;;;6.15;;
64282;SDS011;50497;50.720;-2.084;2023-03-31T00:42:47;46.17;;;6.93;;
64282;SDS011;50497;50.720;-2.084;2023-03-31T00:45:24;40.85;;;6.85;;
64282;SDS011;50497;50.720;-2.084;2023-03-31T00:48:01;47.40;;;6.22;;
64282;SDS011;50497;50.720;-2.084;2023-03-31T00:50:48;45.13;;;7.05;;
64282;SDS011;50497;50.720;-2.084;2023-03-31T00:53:20;51.63;;;7.70;;
64282;SDS011;50497;50.720;-2.084;2023-03-31T00:55:50;42.22;;;6.90;;
64282;SDS011;50497;50.720;-2.084;2023-03-31T00:58:27;38.40;;;6.80;;
64282;SDS011;50497;50.720;-2.084;2023-03-31T01:00:57;30.73;;;5.18;;
64282;SDS011;50497;50.720;-2.084;2023-03-31T01:03:26;39.65;;;6.35;;
64282;SDS011;50497;50.720;-2.084;2023-03-31T01:06:00;38.92;;;6.15;;
64282;SDS011;50497;50.720;-2.084;2023-03-31T01:08:33;36.85;;;5.35;;
64282;SDS011;50497;50.720;-2.084;2023-03-31T01:11:06;39.63;;;6.75;;
64282;SDS011;50497;50.720;-2.084;2023-03-31T01:13:40;45.55;;;6.40;;
64282;SDS011;50497;50.720;-2.084;2023-03-31T01:16:18;44.38;;;6.60;;
64282;SDS011;50497;50.720;-2.084;2023-03-31T01:18:44;36.58;;;7.43;;
64282;SDS011;50497;50.720;-2.084;2023-03-31T01:29:52;44.38;;;7.03;;
64282;SDS011;50497;50.720;-2.084;2023-03-31T01:32:49;55.92;;;8.70;;
64282;SDS011;50497;50.720;-2.084;2023-03-31T01:47:08;46.35;;;6.30;;
64282;SDS011;50497;50.720;-2.084;2023-03-31T01:55:29;51.22;;;7.28;;
64282;SDS011;50497;50.720;-2.084;2023-03-31T02:00:58;49.85;;;7.15;;
64282;SDS011;50497;50.720;-2.084;2023-03-31T02:03:35;54.58;;;8.70;;
64282;SDS011;50497;50.720;-2.084;2023-03-31T02:06:07;57.03;;;8.98;;
64282;SDS011;50497;50.720;-2.084;2023-03-31T02:09:03;57.70;;;7.32;;
64282;SDS011;50497;50.720;-2.084;2023-03-31T02:11:29;36.88;;;6.93;;
64282;SDS011;50497;50.720;-2.084;2023-03-31T02:14:02;52.10;;;7.85;;
64282;SDS011;50497;50.720;-2.084;2023-03-31T02:16:33;39.90;;;6.63;;
64282;SDS011;50497;50.720;-2.084;2023-03-31T02:19:06;36.33;;;5.95;;
64282;SDS011;50497;50.720;-2.084;2023-03-31T02:21:41;41.53;;;6.05;;
64282;SDS011;50497;50.720;-2.084;2023-03-31T02:24:09;44.25;;;6.28;;
64282;SDS011;50497;50.720;-2.084;2023-03-31T02:29:25;49.15;;;6.35;;
64282;SDS011;50497;50.720;-2.084;2023-03-31T02:31:54;33.58;;;6.00;;
64282;SDS011;50497;50.720;-2.084;2023-03-31T02:34:40;32.45;;;4.88;;
64282;SDS011;50497;50.720;-2.084;2023-03-31T02:39:40;36.05;;;6.13;;
64282;SDS011;50497;50.720;-2.084;2023-03-31T02:42:09;33.75;;;5.65;;
64282;SDS011;50497;50.720;-2.084;2023-03-31T02:44:40;38.45;;;6.07;;
64282;SDS011;50497;50.720;-2.084;2023-03-31T02:47:14;36.28;;;6.57;;
64282;SDS011;50497;50.720;-2.084;2023-03-31T02:49:50;38.80;;;6.05;;
64282;SDS011;50497;50.720;-2.084;2023-03-31T03:09:36;38.00;;;6.07;;
64282;SDS011;50497;50.720;-2.084;2023-03-31T03:12:15;26.45;;;4.60;;
64282;SDS011;50497;50.720;-2.084;2023-03-31T03:15:01;39.72;;;5.28;;
64282;SDS011;50497;50.720;-2.084;2023-03-31T03:17:41;28.10;;;5.03;;
64282;SDS011;50497;50.720;-2.084;2023-03-31T03:20:09;37.95;;;4.65;;
64282;SDS011;50497;50.720;-2.084;2023-03-31T03:22:40;27.45;;;5.13;;
64282;SDS011;50497;50.720;-2.084;2023-03-31T03:25:07;31.45;;;4.55;;
64282;SDS011;50497;50.720;-2.084;2023-03-31T03:27:42;24.05;;;3.85;;
64282;SDS011;50497;50.720;-2.084;2023-03-31T03:30:13;27.38;;;4.40;;
64282;SDS011;50497;50.720;-2.084;2023-03-31T03:32:39;31.80;;;4.78;;
64282;SDS011;50497;50.720;-2.084;2023-03-31T03:35:11;27.83;;;4.22;;
64282;SDS011;50497;50.720;-2.084;2023-03-31T03:37:37;21.15;;;3.65;;
64282;SDS011;50497;50.720;-2.084;2023-03-31T03:40:08;25.88;;;3.70;;
64282;SDS011;50497;50.720;-2.084;2023-03-31T03:42:35;24.15;;;4.10;;
64282;SDS011;50497;50.720;-2.084;2023-03-31T03:45:07;26.35;;;4.20;;
64282;SDS011;50497;50.720;-2.084;2023-03-31T03:47:33;19.88;;;3.35;;
64282;SDS011;50497;50.720;-2.084;2023-03-31T03:50:05;28.58;;;3.60;;
64282;SDS011;50497;50.720;-2.084;2023-03-31T03:52:36;28.17;;;3.45;;
64282;SDS011;50497;50.720;-2.084;2023-03-31T03:55:05;21.90;;;3.40;;
64282;SDS011;50497;50.720;-2.084;2023-03-31T03:57:36;28.88;;;3.78;;
64282;SDS011;50497;50.720;-2.084;2023-03-31T04:00:12;25.33;;;3.83;;
64282;SDS011;50497;50.720;-2.084;2023-03-31T04:05:12;32.38;;;5.07;;
64282;SDS011;50497;50.720;-2.084;2023-03-31T04:07:38;29.02;;;4.68;;
64282;SDS011;50497;50.720;-2.084;2023-03-31T04:10:07;28.55;;;4.63;;
64282;SDS011;50497;50.720;-2.084;2023-03-31T04:12:40;34.05;;;5.25;;
64282;SDS011;50497;50.720;-2.084;2023-03-31T04:15:10;30.05;;;4.38;;
64282;SDS011;50497;50.720;-2.084;2023-03-31T04:17:50;38.47;;;5.00;;
64282;SDS011;50497;50.720;-2.084;2023-03-31T04:20:25;33.15;;;5.38;;
64282;SDS011;50497;50.720;-2.084;2023-03-31T04:23:00;34.30;;;5.35;;
64282;SDS011;50497;50.720;-2.084;2023-03-31T04:25:37;36.50;;;5.05;;
64282;SDS011;50497;50.720;-2.084;2023-03-31T04:28:10;35.63;;;5.72;;
64282;SDS011;50497;50.720;-2.084;2023-03-31T04:30:38;31.52;;;5.10;;
64282;SDS011;50497;50.720;-2.084;2023-03-31T04:33:11;21.88;;;4.10;;
64282;SDS011;50497;50.720;-2.084;2023-03-31T04:35:39;24.48;;;3.83;;
64282;SDS011;50497;50.720;-2.084;2023-03-31T04:38:25;27.23;;;4.63;;
64282;SDS011;50497;50.720;-2.084;2023-03-31T04:40:51;25.95;;;4.82;;
64282;SDS011;50497;50.720;-2.084;2023-03-31T04:43:22;26.52;;;3.72;;
64282;SDS011;50497;50.720;-2.084;2023-03-31T04:45:51;16.40;;;3.85;;
64282;SDS011;50497;50.720;-2.084;2023-03-31T04:48:20;29.50;;;4.28;;
64282;SDS011;50497;50.720;-2.084;2023-03-31T04:50:48;24.80;;;3.50;;
64282;SDS011;50497;50.720;-2.084;2023-03-31T04:53:18;30.60;;;4.45;;
64282;SDS011;50497;50.720;-2.084;2023-03-31T04:55:48;27.25;;;4.35;;
64282;SDS011;50497;50.720;-2.084;2023-03-31T04:58:18;26.08;;;4.05;;
64282;SDS011;50497;50.720;-2.084;2023-03-31T05:00:46;18.90;;;3.92;;
64282;SDS011;50497;50.720;-2.084;2023-03-31T05:03:12;28.88;;;4.53;;
64282;SDS011;50497;50.720;-2.084;2023-03-31T05:05:37;35.75;;;5.07;;
64282;SDS011;50497;50.720;-2.084;2023-03-31T05:08:03;27.10;;;4.57;;
64282;SDS011;50497;50.720;-2.084;2023-03-31T05:10:32;27.13;;;4.20;;
64282;SDS011;50497;50.720;-2.084;2023-03-31T05:13:04;31.27;;;5.50;;
64282;SDS011;50497;50.720;-2.084;2023-03-31T05:15:29;32.47;;;5.65;;
64282;SDS011;50497;50.720;-2.084;2023-03-31T05:18:01;26.38;;;4.38;;
64282;SDS011;50497;50.720;-2.084;2023-03-31T05:20:26;28.80;;;4.57;;
64282;SDS011;50497;50.720;-2.084;2023-03-31T05:22:56;36.40;;;5.45;;
64282;SDS011;50497;50.720;-2.084;2023-03-31T05:25:26;26.67;;;4.63;;
64282;SDS011;50497;50.720;-2.084;2023-03-31T05:28:00;26.38;;;4.82;;
64282;SDS011;50497;50.720;-2.084;2023-03-31T05:30:30;30.63;;;4.95;;
64282;SDS011;50497;50.720;-2.084;2023-03-31T05:33:00;23.42;;;5.78;;
64282;SDS011;50497;50.720;-2.084;2023-03-31T05:35:29;31.20;;;4.80;;
64282;SDS011;50497;50.720;-2.084;2023-03-31T05:38:01;31.15;;;5.13;;
64282;SDS011;50497;50.720;-2.084;2023-03-31T05:40:33;37.45;;;5.95;;
64282;SDS011;50497;50.720;-2.084;2023-03-31T05:43:02;34.03;;;5.82;;
64282;SDS011;50497;50.720;-2.084;2023-03-31T05:45:34;31.67;;;4.97;;
64282;SDS011;50497;50.720;-2.084;2023-03-31T05:48:07;33.60;;;5.97;;
64282;SDS011;50497;50.720;-2.084;2023-03-31T05:50:33;38.95;;;5.40;;
64282;SDS011;50497;50.720;-2.084;2023-03-31T05:52:58;23.50;;;5.22;;
64282;SDS011;50497;50.720;-2.084;2023-03-31T05:55:29;30.73;;;4.88;;
64282;SDS011;50497;50.720;-2.084;2023-03-31T05:57:58;26.73;;;5.15;;
64282;SDS011;50497;50.720;-2.084;2023-03-31T06:00:25;24.85;;;4.60;;
64282;SDS011;50497;50.720;-2.084;2023-03-31T06:02:56;31.02;;;5.18;;
64282;SDS011;50497;50.720;-2.084;2023-03-31T06:05:26;33.70;;;5.72;;
64282;SDS011;50497;50.720;-2.084;2023-03-31T06:07:55;26.23;;;4.65;;
64282;SDS011;50497;50.720;-2.084;2023-03-31T06:10:26;23.02;;;4.20;;
64282;SDS011;50497;50.720;-2.084;2023-03-31T06:12:55;29.20;;;4.78;;
64282;SDS011;50497;50.720;-2.084;2023-03-31T06:15:21;19.58;;;4.43;;
64282;SDS011;50497;50.720;-2.084;2023-03-31T06:17:56;24.35;;;4.18;;
64282;SDS011;50497;50.720;-2.084;2023-03-31T06:20:24;24.00;;;4.57;;
64282;SDS011;50497;50.720;-2.084;2023-03-31T06:22:51;25.00;;;5.50;;
64282;SDS011;50497;50.720;-2.084;2023-03-31T06:25:16;35.45;;;5.43;;
64282;SDS011;50497;50.720;-2.084;2023-03-31T06:27:46;28.67;;;4.15;;
64282;SDS011;50497;50.720;-2.084;2023-03-31T06:30:15;23.40;;;3.88;;
64282;SDS011;50497;50.720;-2.084;2023-03-31T06:32:41;21.60;;;3.90;;
64282;SDS011;50497;50.720;-2.084;2023-03-31T06:35:06;23.77;;;4.10;;
64282;SDS011;50497;50.720;-2.084;2023-03-31T06:37:32;22.48;;;4.10;;
64282;SDS011;50497;50.720;-2.084;2023-03-31T06:40:02;19.42;;;3.85;;
64282;SDS011;50497;50.720;-2.084;2023-03-31T06:42:28;25.63;;;3.65;;
64282;SDS011;50497;50.720;-2.084;2023-03-31T06:44:54;23.23;;;4.10;;
64282;SDS011;50497;50.720;-2.084;2023-03-31T06:47:19;24.25;;;4.35;;
64282;SDS011;50497;50.720;-2.084;2023-03-31T06:49:45;17.38;;;4.00;;
64282;SDS011;50497;50.720;-2.084;2023-03-31T06:52:11;27.13;;;4.72;;
64282;SDS011;50497;50.720;-2.084;2023-03-31T06:54:40;25.58;;;4.47;;
64282;SDS011;50497;50.720;-2.084;2023-03-31T06:57:09;21.70;;;3.67;;
64282;SDS011;50497;50.720;-2.084;2023-03-31T06:59:38;21.40;;;3.03;;
64282;SDS011;50497;50.720;-2.084;2023-03-31T07:02:08;23.23;;;4.28;;
64282;SDS011;50497;50.720;-2.084;2023-03-31T07:04:35;22.23;;;3.60;;
64282;SDS011;50497;50.720;-2.084;2023-03-31T07:07:05;18.25;;;3.72;;
64282;SDS011;50497;50.720;-2.084;2023-03-31T07:09:31;22.80;;;3.83;;
64282;SDS011;50497;50.720;-2.084;2023-03-31T07:11:56;21.15;;;3.97;;
64282;SDS011;50497;50.720;-2.084;2023-03-31T07:14:28;20.25;;;4.65;;
64282;SDS011;50497;50.720;-2.084;2023-03-31T07:16:58;21.27;;;4.43;;
64282;SDS011;50497;50.720;-2.084;2023-03-31T07:19:30;22.73;;;3.85;;
64282;SDS011;50497;50.720;-2.084;2023-03-31T07:21:56;21.77;;;3.72;;
64282;SDS011;50497;50.720;-2.084;2023-03-31T07:24:25;21.60;;;4.10;;
64282;SDS011;50497;50.720;-2.084;2023-03-31T07:26:57;14.30;;;3.30;;
64282;SDS011;50497;50.720;-2.084;2023-03-31T07:29:23;16.15;;;3.17;;
64282;SDS011;50497;50.720;-2.084;2023-03-31T07:31:50;24.38;;;3.47;;
64282;SDS011;50497;50.720;-2.084;2023-03-31T07:34:16;17.50;;;3.20;;
64282;SDS011;50497;50.720;-2.084;2023-03-31T07:36:42;17.73;;;3.35;;
64282;SDS011;50497;50.720;-2.084;2023-03-31T07:39:07;20.13;;;3.50;;
64282;SDS011;50497;50.720;-2.084;2023-03-31T07:41:33;19.70;;;3.28;;
64282;SDS011;50497;50.720;-2.084;2023-03-31T07:43:59;20.95;;;3.88;;
64282;SDS011;50497;50.720;-2.084;2023-03-31T07:46:26;19.80;;;3.80;;
64282;SDS011;50497;50.720;-2.084;2023-03-31T07:48:53;19.25;;;3.17;;
64282;SDS011;50497;50.720;-2.084;2023-03-31T07:51:21;21.50;;;4.50;;
64282;SDS011;50497;50.720;-2.084;2023-03-31T07:53:49;17.40;;;3.17;;
64282;SDS011;50497;50.720;-2.084;2023-03-31T07:56:16;12.88;;;3.00;;
64282;SDS011;50497;50.720;-2.084;2023-03-31T07:58:47;13.63;;;2.08;;
64282;SDS011;50497;50.720;-2.084;2023-03-31T08:01:14;16.85;;;3.35;;
64282;SDS011;50497;50.720;-2.084;2023-03-31T08:03:41;18.42;;;3.88;;
64282;SDS011;50497;50.720;-2.084;2023-03-31T08:06:07;14.50;;;2.75;;
64282;SDS011;50497;50.720;-2.084;2023-03-31T08:08:32;18.25;;;3.75;;
64282;SDS011;50497;50.720;-2.084;2023-03-31T08:10:58;23.30;;;3.60;;
64282;SDS011;50497;50.720;-2.084;2023-03-31T08:13:27;15.02;;;2.80;;
64282;SDS011;50497;50.720;-2.084;2023-03-31T08:15:55;15.93;;;3.55;;
64282;SDS011;50497;50.720;-2.084;2023-03-31T08:18:28;21.50;;;3.63;;
64282;SDS011;50497;50.720;-2.084;2023-03-31T08:21:00;14.45;;;2.75;;
64282;SDS011;50497;50.720;-2.084;2023-03-31T08:23:26;13.95;;;3.08;;
64282;SDS011;50497;50.720;-2.084;2023-03-31T08:25:52;17.23;;;3.80;;
64282;SDS011;50497;50.720;-2.084;2023-03-31T08:31:01;11.93;;;2.47;;
64282;SDS011;50497;50.720;-2.084;2023-03-31T08:33:30;15.35;;;3.08;;
64282;SDS011;50497;50.720;-2.084;2023-03-31T08:36:06;14.68;;;2.70;;
64282;SDS011;50497;50.720;-2.084;2023-03-31T08:38:39;13.63;;;3.35;;
64282;SDS011;50497;50.720;-2.084;2023-03-31T08:41:06;13.85;;;2.50;;
64282;SDS011;50497;50.720;-2.084;2023-03-31T08:43:44;14.95;;;3.03;;
64282;SDS011;50497;50.720;-2.084;2023-03-31T08:46:11;14.98;;;2.63;;
64282;SDS011;50497;50.720;-2.084;2023-03-31T08:48:47;11.93;;;2.55;;
64282;SDS011;50497;50.720;-2.084;2023-03-31T08:54:15;11.18;;;2.70;;
64282;SDS011;50497;50.720;-2.084;2023-03-31T08:56:48;9.23;;;2.25;;
64282;SDS011;50497;50.720;-2.084;2023-03-31T08:59:17;10.50;;;2.20;;
64282;SDS011;50497;50.720;-2.084;2023-03-31T09:02:18;8.68;;;1.98;;
64282;SDS011;50497;50.720;-2.084;2023-03-31T09:04:46;8.13;;;1.60;;
64282;SDS011;50497;50.720;-2.084;2023-03-31T09:10:03;9.68;;;1.98;;
64282;SDS011;50497;50.720;-2.084;2023-03-31T09:15:26;12.23;;;1.98;;
64282;SDS011;50497;50.720;-2.084;2023-03-31T09:17:54;7.72;;;1.73;;
64282;SDS011;50497;50.720;-2.084;2023-03-31T09:20:28;9.55;;;1.65;;
64282;SDS011;50497;50.720;-2.084;2023-03-31T09:25:46;5.20;;;1.50;;
64282;SDS011;50497;50.720;-2.084;2023-03-31T09:28:19;6.65;;;1.30;;
64282;SDS011;50497;50.720;-2.084;2023-03-31T09:30:51;6.03;;;1.40;;
64282;SDS011;50497;50.720;-2.084;2023-03-31T09:33:28;6.68;;;1.40;;
64282;SDS011;50497;50.720;-2.084;2023-03-31T09:36:04;5.38;;;1.17;;
64282;SDS011;50497;50.720;-2.084;2023-03-31T09:38:38;3.67;;;0.90;;
64282;SDS011;50497;50.720;-2.084;2023-03-31T09:41:06;4.68;;;1.00;;
64282;SDS011;50497;50.720;-2.084;2023-03-31T09:43:36;6.38;;;1.20;;
64282;SDS011;50497;50.720;-2.084;2023-03-31T09:49:09;4.03;;;0.85;;
64282;SDS011;50497;50.720;-2.084;2023-03-31T09:51:41;5.72;;;1.00;;
64282;SDS011;50497;50.720;-2.084;2023-03-31T09:57:00;6.15;;;1.30;;
64282;SDS011;50497;50.720;-2.084;2023-03-31T09:59:33;6.07;;;1.10;;
64282;SDS011;50497;50.720;-2.084;2023-03-31T10:11:23;2.72;;;0.90;;
64282;SDS011;50497;50.720;-2.084;2023-03-31T10:13:46;2.53;;;0.80;;
64282;SDS011;50497;50.720;-2.084;2023-03-31T10:16:21;4.50;;;1.08;;
64282;SDS011;50497;50.720;-2.084;2023-03-31T10:18:51;6.20;;;1.05;;
64282;SDS011;50497;50.720;-2.084;2023-03-31T10:21:22;4.75;;;1.17;;
64282;SDS011;50497;50.720;-2.084;2023-03-31T10:23:50;6.80;;;1.20;;
64282;SDS011;50497;50.720;-2.084;2023-03-31T10:26:20;3.85;;;1.00;;
64282;SDS011;50497;50.720;-2.084;2023-03-31T10:28:55;8.98;;;1.42;;
64282;SDS011;50497;50.720;-2.084;2023-03-31T10:31:26;4.18;;;1.00;;
64282;SDS011;50497;50.720;-2.084;2023-03-31T10:34:03;6.05;;;1.02;;
64282;SDS011;50497;50.720;-2.084;2023-03-31T10:36:32;5.80;;;1.17;;
64282;SDS011;50497;50.720;-2.084;2023-03-31T10:39:05;4.47;;;1.20;;
64282;SDS011;50497;50.720;-2.084;2023-03-31T10:41:35;4.13;;;1.40;;
64282;SDS011;50497;50.720;-2.084;2023-03-31T10:44:01;5.95;;;1.10;;
64282;SDS011;50497;50.720;-2.084;2023-03-31T10:49:23;4.90;;;1.10;;
64282;SDS011;50497;50.720;-2.084;2023-03-31T10:51:54;8.30;;;1.33;;
64282;SDS011;50497;50.720;-2.084;2023-03-31T10:54:21;5.15;;;1.20;;
64282;SDS011;50497;50.720;-2.084;2023-03-31T10:56:50;5.95;;;1.40;;
64282;SDS011;50497;50.720;-2.084;2023-03-31T11:05:45;4.32;;;1.00;;
64282;SDS011;50497;50.720;-2.084;2023-03-31T11:08:48;4.70;;;1.10;;
64282;SDS011;50497;50.720;-2.084;2023-03-31T11:14:40;3.58;;;1.15;;
64282;SDS011;50497;50.720;-2.084;2023-03-31T11:20:26;5.18;;;1.77;;
64282;SDS011;50497;50.720;-2.084;2023-03-31T11:22:58;8.07;;;1.30;;
64282;SDS011;50497;50.720;-2.084;2023-03-31T11:25:43;5.97;;;1.27;;
64282;SDS011;50497;50.720;-2.084;2023-03-31T11:31:00;3.65;;;0.90;;
64282;SDS011;50497;50.720;-2.084;2023-03-31T11:37:17;4.50;;;0.90;;
64282;SDS011;50497;50.720;-2.084;2023-03-31T11:42:47;4.22;;;0.95;;
64282;SDS011;50497;50.720;-2.084;2023-03-31T11:45:17;5.07;;;1.08;;
64282;SDS011;50497;50.720;-2.084;2023-03-31T11:47:51;6.57;;;1.20;;
64282;SDS011;50497;50.720;-2.084;2023-03-31T11:50:24;3.00;;;0.95;;
64282;SDS011;50497;50.720;-2.084;2023-03-31T11:53:01;6.95;;;1.20;;
64282;SDS011;50497;50.720;-2.084;2023-03-31T11:55:30;2.25;;;0.90;;
64282;SDS011;50497;50.720;-2.084;2023-03-31T11:58:03;3.92;;;0.95;;
64282;SDS011;50497;50.720;-2.084;2023-03-31T12:00:43;6.03;;;1.30;;
64282;SDS011;50497;50.720;-2.084;2023-03-31T12:03:23;4.28;;;1.10;;
64282;SDS011;50497;50.720;-2.084;2023-03-31T12:06:07;4.57;;;1.25;;
64282;SDS011;50497;50.720;-2.084;2023-03-31T12:08:44;3.60;;;1.00;;
64282;SDS011;50497;50.720;-2.084;2023-03-31T12:12:03;5.90;;;1.30;;
64282;SDS011;50497;50.720;-2.084;2023-03-31T12:14:27;7.28;;;1.50;;
64282;SDS011;50497;50.720;-2.084;2023-03-31T12:17:33;6.75;;;1.10;;
64282;SDS011;50497;50.720;-2.084;2023-03-31T12:20:03;7.90;;;1.48;;
64282;SDS011;50497;50.720;-2.084;2023-03-31T12:22:42;5.10;;;1.25;;
64282;SDS011;50497;50.720;-2.084;2023-03-31T12:25:12;8.38;;;1.60;;
64282;SDS011;50497;50.720;-2.084;2023-03-31T12:27:42;4.55;;;1.20;;
64282;SDS011;50497;50.720;-2.084;2023-03-31T12:30:16;8.88;;;1.42;;
64282;SDS011;50497;50.720;-2.084;2023-03-31T12:49:37;5.53;;;1.30;;
64282;SDS011;50497;50.720;-2.084;2023-03-31T12:52:29;8.85;;;1.73;;
64282;SDS011;50497;50.720;-2.084;2023-03-31T12:57:50;9.40;;;1.55;;
64282;SDS011;50497;50.720;-2.084;2023-03-31T13:02:45;7.53;;;1.58;;
64282;SDS011;50497;50.720;-2.084;2023-03-31T13:08:04;11.07;;;1.50;;
64282;SDS011;50497;50.720;-2.084;2023-03-31T13:10:36;7.68;;;1.25;;
64282;SDS011;50497;50.720;-2.084;2023-03-31T13:13:24;7.57;;;1.50;;
64282;SDS011;50497;50.720;-2.084;2023-03-31T13:15:56;5.00;;;1.35;;
64282;SDS011;50497;50.720;-2.084;2023-03-31T13:18:25;8.77;;;1.30;;
64282;SDS011;50497;50.720;-2.084;2023-03-31T13:23:24;4.25;;;1.00;;
64282;SDS011;50497;50.720;-2.084;2023-03-31T13:25:53;7.32;;;1.60;;
64282;SDS011;50497;50.720;-2.084;2023-03-31T13:33:15;6.57;;;1.60;;
64282;SDS011;50497;50.720;-2.084;2023-03-31T13:35:47;6.28;;;1.23;;
64282;SDS011;50497;50.720;-2.084;2023-03-31T14:06:39;5.78;;;1.73;;
64282;SDS011;50497;50.720;-2.084;2023-03-31T14:09:20;3.38;;;1.10;;
64282;SDS011;50497;50.720;-2.084;2023-03-31T14:11:52;4.35;;;1.40;;
64282;SDS011;50497;50.720;-2.084;2023-03-31T14:14:18;4.53;;;0.93;;
64282;SDS011;50497;50.720;-2.084;2023-03-31T14:16:53;4.13;;;1.00;;
64282;SDS011;50497;50.720;-2.084;2023-03-31T14:33:08;2.72;;;0.90;;
64282;SDS011;50497;50.720;-2.084;2023-03-31T14:35:53;4.47;;;1.10;;
64282;SDS011;50497;50.720;-2.084;2023-03-31T14:38:29;3.05;;;0.90;;
64282;SDS011;50497;50.720;-2.084;2023-03-31T14:40:56;3.63;;;0.88;;
64282;SDS011;50497;50.720;-2.084;2023-03-31T14:43:26;2.65;;;0.85;;
64282;SDS011;50497;50.720;-2.084;2023-03-31T14:46:00;5.13;;;1.15;;
64282;SDS011;50497;50.720;-2.084;2023-03-31T14:48:34;5.20;;;1.10;;
64282;SDS011;50497;50.720;-2.084;2023-03-31T14:51:09;4.88;;;1.10;;
64282;SDS011;50497;50.720;-2.084;2023-03-31T14:53:35;4.97;;;0.90;;
64282;SDS011;50497;50.720;-2.084;2023-03-31T14:56:20;4.18;;;1.10;;
64282;SDS011;50497;50.720;-2.084;2023-03-31T14:58:52;4.60;;;1.00;;
64282;SDS011;50497;50.720;-2.084;2023-03-31T15:01:24;4.50;;;1.10;;
64282;SDS011;50497;50.720;-2.084;2023-03-31T15:03:52;2.78;;;0.95;;
64282;SDS011;50497;50.720;-2.084;2023-03-31T15:06:26;4.22;;;1.00;;
64282;SDS011;50497;50.720;-2.084;2023-03-31T15:09:00;3.90;;;1.00;;
64282;SDS011;50497;50.720;-2.084;2023-03-31T15:11:28;6.18;;;1.45;;
64282;SDS011;50497;50.720;-2.084;2023-03-31T15:13:59;6.25;;;1.40;;
64282;SDS011;50497;50.720;-2.084;2023-03-31T15:19:00;7.40;;;1.27;;
64282;SDS011;50497;50.720;-2.084;2023-03-31T15:21:32;6.35;;;1.60;;
64282;SDS011;50497;50.720;-2.084;2023-03-31T15:24:03;7.20;;;1.30;;
64282;SDS011;50497;50.720;-2.084;2023-03-31T15:26:38;5.47;;;1.20;;
64282;SDS011;50497;50.720;-2.084;2023-03-31T15:29:08;7.78;;;1.50;;
64282;SDS011;50497;50.720;-2.084;2023-03-31T15:31:57;7.57;;;1.40;;
64282;SDS011;50497;50.720;-2.084;2023-03-31T15:34:24;4.10;;;1.10;;
64282;SDS011;50497;50.720;-2.084;2023-03-31T15:36:57;2.53;;;0.90;;
64282;SDS011;50497;50.720;-2.084;2023-03-31T15:39:27;3.78;;;1.20;;
64282;SDS011;50497;50.720;-2.084;2023-03-31T15:41:56;4.72;;;1.52;;
64282;SDS011;50497;50.720;-2.084;2023-03-31T15:44:33;2.83;;;0.98;;
64282;SDS011;50497;50.720;-2.084;2023-03-31T15:47:20;3.72;;;0.80;;
64282;SDS011;50497;50.720;-2.084;2023-03-31T15:49:54;2.78;;;1.00;;
64282;SDS011;50497;50.720;-2.084;2023-03-31T15:54:53;3.55;;;1.17;;
64282;SDS011;50497;50.720;-2.084;2023-03-31T15:57:19;5.47;;;1.00;;
64282;SDS011;50497;50.720;-2.084;2023-03-31T15:59:47;1.35;;;0.80;;
64282;SDS011;50497;50.720;-2.084;2023-03-31T16:02:18;2.72;;;0.70;;
64282;SDS011;50497;50.720;-2.084;2023-03-31T16:04:47;3.45;;;0.60;;
64282;SDS011;50497;50.720;-2.084;2023-03-31T16:07:21;2.95;;;0.80;;
64282;SDS011;50497;50.720;-2.084;2023-03-31T16:09:55;2.45;;;0.98;;
64282;SDS011;50497;50.720;-2.084;2023-03-31T16:12:35;1.60;;;0.68;;
64282;SDS011;50497;50.720;-2.084;2023-03-31T16:15:13;2.50;;;0.80;;
64282;SDS011;50497;50.720;-2.084;2023-03-31T16:20:18;5.10;;;1.30;;
64282;SDS011;50497;50.720;-2.084;2023-03-31T16:22:54;3.83;;;0.70;;
64282;SDS011;50497;50.720;-2.084;2023-03-31T16:25:23;2.25;;;0.63;;
64282;SDS011;50497;50.720;-2.084;2023-03-31T16:27:55;2.15;;;0.77;;
64282;SDS011;50497;50.720;-2.084;2023-03-31T16:30:32;1.88;;;0.80;;
64282;SDS011;50497;50.720;-2.084;2023-03-31T16:33:05;2.67;;;0.80;;
64282;SDS011;50497;50.720;-2.084;2023-03-31T16:35:43;2.53;;;0.80;;
64282;SDS011;50497;50.720;-2.084;2023-03-31T16:38:12;3.95;;;1.20;;
64282;SDS011;50497;50.720;-2.084;2023-03-31T16:40:41;3.38;;;1.25;;
64282;SDS011;50497;50.720;-2.084;2023-03-31T16:43:15;3.72;;;0.80;;
64282;SDS011;50497;50.720;-2.084;2023-03-31T16:45:43;4.20;;;0.90;;
64282;SDS011;50497;50.720;-2.084;2023-03-31T16:48:11;4.15;;;1.02;;
64282;SDS011;50497;50.720;-2.084;2023-03-31T16:50:40;3.38;;;0.80;;
64282;SDS011;50497;50.720;-2.084;2023-03-31T16:53:06;4.75;;;1.13;;
64282;SDS011;50497;50.720;-2.084;2023-03-31T16:55:36;2.80;;;0.80;;
64282;SDS011;50497;50.720;-2.084;2023-03-31T16:58:02;2.70;;;0.90;;
64282;SDS011;50497;50.720;-2.084;2023-03-31T17:00:31;2.95;;;1.10;;
64282;SDS011;50497;50.720;-2.084;2023-03-31T17:03:00;3.67;;;1.05;;
64282;SDS011;50497;50.720;-2.084;2023-03-31T17:05:42;2.55;;;0.77;;
64282;SDS011;50497;50.720;-2.084;2023-03-31T17:08:09;1.42;;;0.60;;
64282;SDS011;50497;50.720;-2.084;2023-03-31T17:10:36;2.40;;;0.65;;
64282;SDS011;50497;50.720;-2.084;2023-03-31T17:13:07;1.67;;;0.50;;
64282;SDS011;50497;50.720;-2.084;2023-03-31T17:18:00;1.88;;;0.50;;
64282;SDS011;50497;50.720;-2.084;2023-03-31T17:20:30;1.25;;;0.60;;
64282;SDS011;50497;50.720;-2.084;2023-03-31T17:22:59;2.88;;;0.70;;
64282;SDS011;50497;50.720;-2.084;2023-03-31T17:25:28;2.65;;;0.60;;
64282;SDS011;50497;50.720;-2.084;2023-03-31T17:27:53;3.05;;;0.68;;
64282;SDS011;50497;50.720;-2.084;2023-03-31T17:30:24;3.08;;;1.08;;
64282;SDS011;50497;50.720;-2.084;2023-03-31T17:32:49;1.58;;;0.63;;
64282;SDS011;50497;50.720;-2.084;2023-03-31T17:35:15;2.88;;;0.90;;
64282;SDS011;50497;50.720;-2.084;2023-03-31T17:37:47;3.22;;;1.25;;
64282;SDS011;50497;50.720;-2.084;2023-03-31T17:40:22;5.68;;;1.75;;
64282;SDS011;50497;50.720;-2.084;2023-03-31T17:42:48;3.45;;;1.30;;
64282;SDS011;50497;50.720;-2.084;2023-03-31T17:45:14;4.13;;;1.20;;
64282;SDS011;50497;50.720;-2.084;2023-03-31T17:47:40;1.58;;;0.70;;
64282;SDS011;50497;50.720;-2.084;2023-03-31T17:50:08;7.90;;;1.70;;
64282;SDS011;50497;50.720;-2.084;2023-03-31T17:52:34;4.45;;;1.25;;
64282;SDS011;50497;50.720;-2.084;2023-03-31T17:55:03;3.85;;;1.00;;
64282;SDS011;50497;50.720;-2.084;2023-03-31T17:57:29;4.97;;;1.10;;
64282;SDS011;50497;50.720;-2.084;2023-03-31T17:59:55;4.32;;;1.60;;
64282;SDS011;50497;50.720;-2.084;2023-03-31T18:02:25;4.68;;;1.10;;
64282;SDS011;50497;50.720;-2.084;2023-03-31T18:04:52;4.03;;;1.10;;